sensor_id;sensor_type;location;lat;lon;timestamp;P1;durP1;ratioP1;P2;durP2;ratioP2
48203;SDS011;33994;50.998;5.864;2022-09-12T00:01:58;16.17;;;8.57;;
48203;SDS011;33994;50.998;5.864;2022-09-12T00:04:43;14.70;;;9.30;;
48203;SDS011;33994;50.998;5.864;2022-09-12T00:07:29;14.25;;;10.18;;
48203;SDS011;33994;50.998;5.864;2022-09-12T00:10:15;10.77;;;8.25;;
48203;SDS011;33994;50.998;5.864;2022-09-12T00:13:00;14.18;;;9.38;;
48203;SDS011;33994;50.998;5.864;2022-09-12T00:15:46;12.68;;;9.30;;
48203;SDS011;33994;50.998;5.864;2022-09-12T00:18:32;12.55;;;9.55;;
48203;SDS011;33994;50.998;5.864;2022-09-12T00:21:18;16.20;;;9.00;;
48203;SDS011;33994;50.998;5.864;2022-09-12T00:24:05;13.32;;;9.00;;
48203;SDS011;33994;50.998;5.864;2022-09-12T00:26:50;11.77;;;8.45;;
48203;SDS011;33994;50.998;5.864;2022-09-12T00:29:36;11.45;;;8.70;;
48203;SDS011;33994;50.998;5.864;2022-09-12T00:32:21;14.65;;;8.48;;
48203;SDS011;33994;50.998;5.864;2022-09-12T00:35:07;12.45;;;8.52;;
48203;SDS011;33994;50.998;5.864;2022-09-12T00:37:52;13.63;;;9.35;;
48203;SDS011;33994;50.998;5.864;2022-09-12T00:40:38;12.00;;;8.13;;
48203;SDS011;33994;50.998;5.864;2022-09-12T00:51:59;15.45;;;9.98;;
48203;SDS011;33994;50.998;5.864;2022-09-12T00:54:54;9.93;;;7.63;;
48203;SDS011;33994;50.998;5.864;2022-09-12T00:57:53;13.15;;;8.00;;
48203;SDS011;33994;50.998;5.864;2022-09-12T01:00:42;11.75;;;8.65;;
48203;SDS011;33994;50.998;5.864;2022-09-12T01:03:27;13.38;;;7.95;;
48203;SDS011;33994;50.998;5.864;2022-09-12T01:06:18;12.93;;;8.48;;
48203;SDS011;33994;50.998;5.864;2022-09-12T01:09:09;14.30;;;8.85;;
48203;SDS011;33994;50.998;5.864;2022-09-12T01:11:59;10.77;;;7.93;;
48203;SDS011;33994;50.998;5.864;2022-09-12T01:17:46;15.65;;;8.18;;
48203;SDS011;33994;50.998;5.864;2022-09-12T01:36:35;15.73;;;8.85;;
48203;SDS011;33994;50.998;5.864;2022-09-12T01:45:27;15.95;;;9.40;;
48203;SDS011;33994;50.998;5.864;2022-09-12T01:53:57;15.02;;;10.13;;
48203;SDS011;33994;50.998;5.864;2022-09-12T01:56:49;16.10;;;10.07;;
48203;SDS011;33994;50.998;5.864;2022-09-12T01:59:40;12.77;;;9.55;;
48203;SDS011;33994;50.998;5.864;2022-09-12T02:02:31;12.25;;;8.88;;
48203;SDS011;33994;50.998;5.864;2022-09-12T02:05:33;14.45;;;8.98;;
48203;SDS011;33994;50.998;5.864;2022-09-12T02:08:24;16.83;;;10.05;;
48203;SDS011;33994;50.998;5.864;2022-09-12T02:11:15;15.75;;;10.10;;
48203;SDS011;33994;50.998;5.864;2022-09-12T02:14:05;15.50;;;9.43;;
48203;SDS011;33994;50.998;5.864;2022-09-12T02:17:15;14.82;;;10.02;;
48203;SDS011;33994;50.998;5.864;2022-09-12T02:23:28;14.30;;;10.05;;
48203;SDS011;33994;50.998;5.864;2022-09-12T02:26:19;15.55;;;9.07;;
48203;SDS011;33994;50.998;5.864;2022-09-12T02:29:10;21.67;;;9.48;;
48203;SDS011;33994;50.998;5.864;2022-09-12T02:32:00;14.95;;;10.02;;
48203;SDS011;33994;50.998;5.864;2022-09-12T02:34:55;13.35;;;8.65;;
48203;SDS011;33994;50.998;5.864;2022-09-12T02:40:55;15.50;;;9.18;;
48203;SDS011;33994;50.998;5.864;2022-09-12T02:43:41;13.52;;;9.35;;
48203;SDS011;33994;50.998;5.864;2022-09-12T02:46:28;12.48;;;8.52;;
48203;SDS011;33994;50.998;5.864;2022-09-12T02:49:21;14.30;;;9.57;;
48203;SDS011;33994;50.998;5.864;2022-09-12T02:52:07;13.30;;;8.90;;
48203;SDS011;33994;50.998;5.864;2022-09-12T02:54:52;13.82;;;9.82;;
48203;SDS011;33994;50.998;5.864;2022-09-12T02:57:39;15.40;;;9.80;;
48203;SDS011;33994;50.998;5.864;2022-09-12T03:00:24;12.48;;;8.93;;
48203;SDS011;33994;50.998;5.864;2022-09-12T03:06:24;11.98;;;8.50;;
48203;SDS011;33994;50.998;5.864;2022-09-12T03:18:10;17.23;;;10.32;;
48203;SDS011;33994;50.998;5.864;2022-09-12T03:21:03;14.32;;;9.90;;
48203;SDS011;33994;50.998;5.864;2022-09-12T03:30:00;16.27;;;9.48;;
48203;SDS011;33994;50.998;5.864;2022-09-12T03:32:49;13.10;;;9.45;;
48203;SDS011;33994;50.998;5.864;2022-09-12T03:35:36;12.35;;;9.18;;
48203;SDS011;33994;50.998;5.864;2022-09-12T03:38:22;15.43;;;9.02;;
48203;SDS011;33994;50.998;5.864;2022-09-12T03:41:07;14.90;;;9.27;;
48203;SDS011;33994;50.998;5.864;2022-09-12T03:43:53;16.10;;;8.90;;
48203;SDS011;33994;50.998;5.864;2022-09-12T03:46:39;13.50;;;9.18;;
48203;SDS011;33994;50.998;5.864;2022-09-12T03:49:25;13.02;;;9.82;;
48203;SDS011;33994;50.998;5.864;2022-09-12T03:52:10;17.10;;;10.10;;
48203;SDS011;33994;50.998;5.864;2022-09-12T03:54:56;14.43;;;9.50;;
48203;SDS011;33994;50.998;5.864;2022-09-12T03:57:41;17.30;;;9.93;;
48203;SDS011;33994;50.998;5.864;2022-09-12T04:00:28;17.85;;;10.30;;
48203;SDS011;33994;50.998;5.864;2022-09-12T04:03:13;17.15;;;10.35;;
48203;SDS011;33994;50.998;5.864;2022-09-12T04:05:58;18.10;;;10.45;;
48203;SDS011;33994;50.998;5.864;2022-09-12T04:08:46;12.45;;;9.13;;
48203;SDS011;33994;50.998;5.864;2022-09-12T04:11:33;18.25;;;10.68;;
48203;SDS011;33994;50.998;5.864;2022-09-12T04:14:19;17.98;;;10.48;;
48203;SDS011;33994;50.998;5.864;2022-09-12T04:17:04;15.40;;;9.80;;
48203;SDS011;33994;50.998;5.864;2022-09-12T04:19:50;15.95;;;10.25;;
48203;SDS011;33994;50.998;5.864;2022-09-12T04:22:35;20.55;;;10.65;;
48203;SDS011;33994;50.998;5.864;2022-09-12T04:25:21;15.55;;;10.20;;
48203;SDS011;33994;50.998;5.864;2022-09-12T04:28:07;15.48;;;10.52;;
48203;SDS011;33994;50.998;5.864;2022-09-12T04:30:52;17.80;;;10.73;;
48203;SDS011;33994;50.998;5.864;2022-09-12T04:33:38;17.52;;;10.48;;
48203;SDS011;33994;50.998;5.864;2022-09-12T04:36:24;12.38;;;9.27;;
48203;SDS011;33994;50.998;5.864;2022-09-12T04:39:10;15.03;;;10.17;;
48203;SDS011;33994;50.998;5.864;2022-09-12T04:41:55;19.33;;;9.38;;
48203;SDS011;33994;50.998;5.864;2022-09-12T04:44:41;17.10;;;9.75;;
48203;SDS011;33994;50.998;5.864;2022-09-12T04:47:27;17.33;;;11.05;;
48203;SDS011;33994;50.998;5.864;2022-09-12T04:50:12;14.63;;;10.05;;
48203;SDS011;33994;50.998;5.864;2022-09-12T04:52:58;18.73;;;11.93;;
48203;SDS011;33994;50.998;5.864;2022-09-12T04:55:43;17.33;;;11.23;;
48203;SDS011;33994;50.998;5.864;2022-09-12T04:58:30;18.08;;;11.98;;
48203;SDS011;33994;50.998;5.864;2022-09-12T05:01:17;19.27;;;11.48;;
48203;SDS011;33994;50.998;5.864;2022-09-12T05:04:04;17.05;;;10.55;;
48203;SDS011;33994;50.998;5.864;2022-09-12T05:06:49;23.05;;;14.32;;
48203;SDS011;33994;50.998;5.864;2022-09-12T05:09:35;19.65;;;11.55;;
48203;SDS011;33994;50.998;5.864;2022-09-12T05:12:20;21.10;;;12.77;;
48203;SDS011;33994;50.998;5.864;2022-09-12T05:15:06;17.52;;;12.02;;
48203;SDS011;33994;50.998;5.864;2022-09-12T05:17:52;21.13;;;11.57;;
48203;SDS011;33994;50.998;5.864;2022-09-12T05:20:37;17.02;;;12.05;;
48203;SDS011;33994;50.998;5.864;2022-09-12T05:23:23;16.38;;;10.20;;
48203;SDS011;33994;50.998;5.864;2022-09-12T05:26:12;18.00;;;11.65;;
48203;SDS011;33994;50.998;5.864;2022-09-12T05:28:59;18.83;;;11.48;;
48203;SDS011;33994;50.998;5.864;2022-09-12T05:31:44;19.25;;;12.57;;
48203;SDS011;33994;50.998;5.864;2022-09-12T05:34:34;20.70;;;13.50;;
48203;SDS011;33994;50.998;5.864;2022-09-12T05:37:20;19.50;;;12.73;;
48203;SDS011;33994;50.998;5.864;2022-09-12T05:40:06;20.05;;;12.23;;
48203;SDS011;33994;50.998;5.864;2022-09-12T05:42:53;19.88;;;13.07;;
48203;SDS011;33994;50.998;5.864;2022-09-12T05:45:38;20.92;;;12.95;;
48203;SDS011;33994;50.998;5.864;2022-09-12T05:48:24;20.67;;;13.60;;
48203;SDS011;33994;50.998;5.864;2022-09-12T05:51:13;22.20;;;13.77;;
48203;SDS011;33994;50.998;5.864;2022-09-12T05:54:04;21.98;;;14.50;;
48203;SDS011;33994;50.998;5.864;2022-09-12T05:56:50;22.27;;;14.25;;
48203;SDS011;33994;50.998;5.864;2022-09-12T05:59:36;24.50;;;14.43;;
48203;SDS011;33994;50.998;5.864;2022-09-12T06:02:21;18.65;;;12.30;;
48203;SDS011;33994;50.998;5.864;2022-09-12T06:05:07;21.63;;;13.85;;
48203;SDS011;33994;50.998;5.864;2022-09-12T06:07:53;20.42;;;13.60;;
48203;SDS011;33994;50.998;5.864;2022-09-12T06:10:38;24.60;;;14.90;;
48203;SDS011;33994;50.998;5.864;2022-09-12T06:13:24;20.00;;;14.20;;
48203;SDS011;33994;50.998;5.864;2022-09-12T06:16:14;24.33;;;13.82;;
48203;SDS011;33994;50.998;5.864;2022-09-12T06:19:02;26.23;;;14.30;;
48203;SDS011;33994;50.998;5.864;2022-09-12T06:21:49;21.88;;;14.23;;
48203;SDS011;33994;50.998;5.864;2022-09-12T06:24:36;26.00;;;14.60;;
48203;SDS011;33994;50.998;5.864;2022-09-12T06:27:22;24.27;;;14.43;;
48203;SDS011;33994;50.998;5.864;2022-09-12T06:30:07;21.35;;;14.52;;
48203;SDS011;33994;50.998;5.864;2022-09-12T06:32:53;21.98;;;14.75;;
48203;SDS011;33994;50.998;5.864;2022-09-12T06:35:40;22.23;;;15.07;;
48203;SDS011;33994;50.998;5.864;2022-09-12T06:38:26;26.05;;;15.75;;
48203;SDS011;33994;50.998;5.864;2022-09-12T06:41:11;23.05;;;13.18;;
48203;SDS011;33994;50.998;5.864;2022-09-12T06:43:58;24.60;;;14.43;;
48203;SDS011;33994;50.998;5.864;2022-09-12T06:46:44;21.50;;;13.73;;
48203;SDS011;33994;50.998;5.864;2022-09-12T06:49:30;22.58;;;14.82;;
48203;SDS011;33994;50.998;5.864;2022-09-12T06:52:15;26.10;;;16.23;;
48203;SDS011;33994;50.998;5.864;2022-09-12T06:55:01;26.52;;;16.95;;
48203;SDS011;33994;50.998;5.864;2022-09-12T06:57:48;24.00;;;15.25;;
48203;SDS011;33994;50.998;5.864;2022-09-12T07:00:34;28.40;;;15.95;;
48203;SDS011;33994;50.998;5.864;2022-09-12T07:03:20;25.63;;;15.48;;
48203;SDS011;33994;50.998;5.864;2022-09-12T07:08:52;24.85;;;15.23;;
48203;SDS011;33994;50.998;5.864;2022-09-12T07:11:38;24.85;;;15.20;;
48203;SDS011;33994;50.998;5.864;2022-09-12T07:14:25;23.20;;;15.45;;
48203;SDS011;33994;50.998;5.864;2022-09-12T07:17:11;23.35;;;14.73;;
48203;SDS011;33994;50.998;5.864;2022-09-12T07:19:56;20.75;;;14.27;;
48203;SDS011;33994;50.998;5.864;2022-09-12T07:22:41;26.60;;;15.32;;
48203;SDS011;33994;50.998;5.864;2022-09-12T07:25:27;29.13;;;15.82;;
48203;SDS011;33994;50.998;5.864;2022-09-12T07:28:12;21.48;;;13.18;;
48203;SDS011;33994;50.998;5.864;2022-09-12T07:31:04;27.60;;;15.15;;
48203;SDS011;33994;50.998;5.864;2022-09-12T07:33:51;25.52;;;14.95;;
48203;SDS011;33994;50.998;5.864;2022-09-12T07:36:37;27.08;;;15.02;;
48203;SDS011;33994;50.998;5.864;2022-09-12T07:39:23;20.88;;;13.20;;
48203;SDS011;33994;50.998;5.864;2022-09-12T07:42:08;24.10;;;13.63;;
48203;SDS011;33994;50.998;5.864;2022-09-12T07:44:54;22.33;;;14.23;;
48203;SDS011;33994;50.998;5.864;2022-09-12T07:47:40;22.75;;;13.57;;
48203;SDS011;33994;50.998;5.864;2022-09-12T07:50:25;18.85;;;13.65;;
48203;SDS011;33994;50.998;5.864;2022-09-12T07:53:11;24.50;;;15.25;;
48203;SDS011;33994;50.998;5.864;2022-09-12T07:55:56;24.10;;;13.80;;
48203;SDS011;33994;50.998;5.864;2022-09-12T07:58:41;16.58;;;11.82;;
48203;SDS011;33994;50.998;5.864;2022-09-12T08:01:28;25.92;;;12.77;;
48203;SDS011;33994;50.998;5.864;2022-09-12T08:04:13;19.48;;;12.43;;
48203;SDS011;33994;50.998;5.864;2022-09-12T08:06:59;20.88;;;12.23;;
48203;SDS011;33994;50.998;5.864;2022-09-12T08:09:44;17.92;;;12.02;;
48203;SDS011;33994;50.998;5.864;2022-09-12T08:12:30;18.60;;;12.40;;
48203;SDS011;33994;50.998;5.864;2022-09-12T08:15:17;21.23;;;13.35;;
48203;SDS011;33994;50.998;5.864;2022-09-12T08:18:03;21.33;;;13.27;;
48203;SDS011;33994;50.998;5.864;2022-09-12T08:20:48;17.52;;;12.50;;
48203;SDS011;33994;50.998;5.864;2022-09-12T08:23:41;19.13;;;12.60;;
48203;SDS011;33994;50.998;5.864;2022-09-12T08:26:28;20.77;;;12.18;;
48203;SDS011;33994;50.998;5.864;2022-09-12T08:29:14;16.98;;;11.82;;
48203;SDS011;33994;50.998;5.864;2022-09-12T08:31:59;16.35;;;11.15;;
48203;SDS011;33994;50.998;5.864;2022-09-12T08:34:45;19.08;;;12.45;;
48203;SDS011;33994;50.998;5.864;2022-09-12T08:37:30;17.25;;;11.88;;
48203;SDS011;33994;50.998;5.864;2022-09-12T08:40:16;15.18;;;11.02;;
48203;SDS011;33994;50.998;5.864;2022-09-12T08:43:02;19.77;;;12.70;;
48203;SDS011;33994;50.998;5.864;2022-09-12T08:46:26;19.88;;;11.70;;
48203;SDS011;33994;50.998;5.864;2022-09-12T08:49:21;13.48;;;8.75;;
48203;SDS011;33994;50.998;5.864;2022-09-12T08:58:21;19.30;;;10.63;;
48203;SDS011;33994;50.998;5.864;2022-09-12T09:01:30;14.70;;;10.13;;
48203;SDS011;33994;50.998;5.864;2022-09-12T09:10:52;15.98;;;9.13;;
48203;SDS011;33994;50.998;5.864;2022-09-12T09:13:58;13.27;;;8.57;;
48203;SDS011;33994;50.998;5.864;2022-09-12T09:17:31;13.10;;;8.82;;
48203;SDS011;33994;50.998;5.864;2022-09-12T09:20:29;12.73;;;8.27;;
48203;SDS011;33994;50.998;5.864;2022-09-12T09:23:59;13.20;;;9.77;;
48203;SDS011;33994;50.998;5.864;2022-09-12T09:29:44;13.57;;;9.10;;
48203;SDS011;33994;50.998;5.864;2022-09-12T09:32:33;10.63;;;8.18;;
48203;SDS011;33994;50.998;5.864;2022-09-12T09:38:23;10.77;;;7.57;;
48203;SDS011;33994;50.998;5.864;2022-09-12T09:44:45;9.10;;;6.40;;
48203;SDS011;33994;50.998;5.864;2022-09-12T09:47:31;8.63;;;7.00;;
48203;SDS011;33994;50.998;5.864;2022-09-12T09:50:17;7.68;;;6.15;;
48203;SDS011;33994;50.998;5.864;2022-09-12T09:53:02;6.32;;;5.70;;
48203;SDS011;33994;50.998;5.864;2022-09-12T09:55:50;6.88;;;5.30;;
48203;SDS011;33994;50.998;5.864;2022-09-12T09:58:39;7.70;;;3.92;;
48203;SDS011;33994;50.998;5.864;2022-09-12T10:01:25;4.93;;;3.70;;
48203;SDS011;33994;50.998;5.864;2022-09-12T10:04:19;6.38;;;3.80;;
48203;SDS011;33994;50.998;5.864;2022-09-12T10:07:16;5.28;;;3.50;;
48203;SDS011;33994;50.998;5.864;2022-09-12T10:13:06;6.55;;;3.53;;
48203;SDS011;33994;50.998;5.864;2022-09-12T10:16:00;6.30;;;3.22;;
48203;SDS011;33994;50.998;5.864;2022-09-12T10:18:49;5.68;;;3.90;;
48203;SDS011;33994;50.998;5.864;2022-09-12T10:21:46;7.78;;;3.85;;
48203;SDS011;33994;50.998;5.864;2022-09-12T10:24:39;5.90;;;3.80;;
48203;SDS011;33994;50.998;5.864;2022-09-12T10:27:27;5.68;;;3.90;;
48203;SDS011;33994;50.998;5.864;2022-09-12T10:30:16;4.65;;;2.95;;
48203;SDS011;33994;50.998;5.864;2022-09-12T10:33:04;3.83;;;2.92;;
48203;SDS011;33994;50.998;5.864;2022-09-12T10:35:55;3.78;;;3.20;;
48203;SDS011;33994;50.998;5.864;2022-09-12T10:38:47;6.22;;;4.20;;
48203;SDS011;33994;50.998;5.864;2022-09-12T10:41:36;4.28;;;3.50;;
48203;SDS011;33994;50.998;5.864;2022-09-12T10:44:24;7.40;;;3.78;;
48203;SDS011;33994;50.998;5.864;2022-09-12T10:47:22;4.95;;;3.45;;
48203;SDS011;33994;50.998;5.864;2022-09-12T10:50:18;5.03;;;3.95;;
48203;SDS011;33994;50.998;5.864;2022-09-12T10:56:28;5.72;;;3.72;;
48203;SDS011;33994;50.998;5.864;2022-09-12T11:08:24;5.90;;;3.63;;
48203;SDS011;33994;50.998;5.864;2022-09-12T11:11:48;5.00;;;4.05;;
48203;SDS011;33994;50.998;5.864;2022-09-12T11:14:38;4.60;;;3.60;;
48203;SDS011;33994;50.998;5.864;2022-09-12T11:20:25;8.38;;;3.92;;
48203;SDS011;33994;50.998;5.864;2022-09-12T11:29:27;5.43;;;3.35;;
48203;SDS011;33994;50.998;5.864;2022-09-12T11:35:49;4.43;;;3.35;;
48203;SDS011;33994;50.998;5.864;2022-09-12T11:38:40;4.10;;;3.47;;
48203;SDS011;33994;50.998;5.864;2022-09-12T11:41:35;7.28;;;2.95;;
48203;SDS011;33994;50.998;5.864;2022-09-12T11:44:28;7.63;;;3.15;;
48203;SDS011;33994;50.998;5.864;2022-09-12T11:47:20;4.03;;;3.20;;
48203;SDS011;33994;50.998;5.864;2022-09-12T11:50:22;3.60;;;3.03;;
48203;SDS011;33994;50.998;5.864;2022-09-12T11:53:14;3.95;;;2.70;;
48203;SDS011;33994;50.998;5.864;2022-09-12T11:56:04;3.60;;;2.65;;
48203;SDS011;33994;50.998;5.864;2022-09-12T11:58:58;4.13;;;2.58;;
48203;SDS011;33994;50.998;5.864;2022-09-12T12:01:54;4.15;;;3.03;;
48203;SDS011;33994;50.998;5.864;2022-09-12T12:05:27;5.38;;;3.00;;
48203;SDS011;33994;50.998;5.864;2022-09-12T12:08:04;2.75;;;2.40;;
48203;SDS011;33994;50.998;5.864;2022-09-12T12:10:52;8.00;;;2.97;;
48203;SDS011;33994;50.998;5.864;2022-09-12T12:13:45;3.22;;;2.60;;
48203;SDS011;33994;50.998;5.864;2022-09-12T12:16:37;3.05;;;2.70;;
48203;SDS011;33994;50.998;5.864;2022-09-12T12:19:30;2.40;;;2.20;;
48203;SDS011;33994;50.998;5.864;2022-09-12T12:22:21;3.45;;;1.98;;
48203;SDS011;33994;50.998;5.864;2022-09-12T12:27:58;2.33;;;2.13;;
48203;SDS011;33994;50.998;5.864;2022-09-12T12:48:24;2.53;;;1.70;;
48203;SDS011;33994;50.998;5.864;2022-09-12T12:51:14;2.42;;;1.80;;
48203;SDS011;33994;50.998;5.864;2022-09-12T12:57:45;3.63;;;2.10;;
48203;SDS011;33994;50.998;5.864;2022-09-12T13:00:36;3.17;;;2.10;;
48203;SDS011;33994;50.998;5.864;2022-09-12T13:03:28;2.55;;;2.00;;
48203;SDS011;33994;50.998;5.864;2022-09-12T13:06:26;3.30;;;2.13;;
48203;SDS011;33994;50.998;5.864;2022-09-12T13:09:24;5.00;;;2.28;;
48203;SDS011;33994;50.998;5.864;2022-09-12T13:12:19;2.47;;;1.90;;
48203;SDS011;33994;50.998;5.864;2022-09-12T13:21:17;3.15;;;2.22;;
48203;SDS011;33994;50.998;5.864;2022-09-12T13:24:11;2.47;;;1.77;;
48203;SDS011;33994;50.998;5.864;2022-09-12T13:26:58;3.67;;;1.90;;
48203;SDS011;33994;50.998;5.864;2022-09-12T13:29:45;2.67;;;1.67;;
48203;SDS011;33994;50.998;5.864;2022-09-12T13:32:30;3.95;;;1.90;;
48203;SDS011;33994;50.998;5.864;2022-09-12T13:35:20;2.22;;;1.80;;
48203;SDS011;33994;50.998;5.864;2022-09-12T13:44:09;3.90;;;2.42;;
48203;SDS011;33994;50.998;5.864;2022-09-12T13:46:59;3.10;;;2.03;;
48203;SDS011;33994;50.998;5.864;2022-09-12T13:49:47;3.50;;;1.75;;
48203;SDS011;33994;50.998;5.864;2022-09-12T13:52:33;3.55;;;1.92;;
48203;SDS011;33994;50.998;5.864;2022-09-12T13:55:32;3.75;;;2.10;;
48203;SDS011;33994;50.998;5.864;2022-09-12T13:58:23;3.67;;;1.98;;
48203;SDS011;33994;50.998;5.864;2022-09-12T14:03:55;2.55;;;1.88;;
48203;SDS011;33994;50.998;5.864;2022-09-12T14:06:58;2.55;;;1.80;;
48203;SDS011;33994;50.998;5.864;2022-09-12T14:09:56;4.43;;;1.85;;
48203;SDS011;33994;50.998;5.864;2022-09-12T14:15:34;4.28;;;2.90;;
48203;SDS011;33994;50.998;5.864;2022-09-12T14:18:22;3.03;;;2.08;;
48203;SDS011;33994;50.998;5.864;2022-09-12T14:24:17;2.47;;;1.92;;
48203;SDS011;33994;50.998;5.864;2022-09-12T14:27:06;2.67;;;1.67;;
48203;SDS011;33994;50.998;5.864;2022-09-12T14:33:01;2.88;;;1.65;;
48203;SDS011;33994;50.998;5.864;2022-09-12T14:38:57;2.35;;;1.80;;
48203;SDS011;33994;50.998;5.864;2022-09-12T14:41:46;2.80;;;1.52;;
48203;SDS011;33994;50.998;5.864;2022-09-12T14:44:32;1.58;;;1.45;;
48203;SDS011;33994;50.998;5.864;2022-09-12T14:50:27;2.45;;;2.00;;
48203;SDS011;33994;50.998;5.864;2022-09-12T14:56:11;3.50;;;2.05;;
48203;SDS011;33994;50.998;5.864;2022-09-12T14:59:18;2.37;;;1.80;;
48203;SDS011;33994;50.998;5.864;2022-09-12T15:07:56;3.80;;;2.05;;
48203;SDS011;33994;50.998;5.864;2022-09-12T15:10:43;3.42;;;1.95;;
48203;SDS011;33994;50.998;5.864;2022-09-12T15:13:29;2.15;;;1.95;;
48203;SDS011;33994;50.998;5.864;2022-09-12T15:16:24;2.63;;;1.90;;
48203;SDS011;33994;50.998;5.864;2022-09-12T15:19:09;2.28;;;1.85;;
48203;SDS011;33994;50.998;5.864;2022-09-12T15:21:55;2.10;;;1.73;;
48203;SDS011;33994;50.998;5.864;2022-09-12T15:24:40;2.05;;;1.83;;
48203;SDS011;33994;50.998;5.864;2022-09-12T15:27:26;2.83;;;2.00;;
48203;SDS011;33994;50.998;5.864;2022-09-12T15:30:12;2.60;;;1.77;;
48203;SDS011;33994;50.998;5.864;2022-09-12T15:32:59;2.63;;;1.83;;
48203;SDS011;33994;50.998;5.864;2022-09-12T15:35:44;3.17;;;1.85;;
48203;SDS011;33994;50.998;5.864;2022-09-12T15:38:30;4.93;;;2.20;;
48203;SDS011;33994;50.998;5.864;2022-09-12T15:44:12;4.28;;;2.20;;
48203;SDS011;33994;50.998;5.864;2022-09-12T15:46:57;2.67;;;2.20;;
48203;SDS011;33994;50.998;5.864;2022-09-12T15:49:43;2.85;;;2.10;;
48203;SDS011;33994;50.998;5.864;2022-09-12T15:52:28;2.78;;;2.10;;
48203;SDS011;33994;50.998;5.864;2022-09-12T15:55:25;2.45;;;2.13;;
48203;SDS011;33994;50.998;5.864;2022-09-12T15:58:13;3.90;;;2.03;;
48203;SDS011;33994;50.998;5.864;2022-09-12T16:00:59;4.40;;;1.90;;
48203;SDS011;33994;50.998;5.864;2022-09-12T16:03:45;3.15;;;2.40;;
48203;SDS011;33994;50.998;5.864;2022-09-12T16:06:31;8.10;;;4.63;;
48203;SDS011;33994;50.998;5.864;2022-09-12T16:09:17;4.57;;;3.63;;
48203;SDS011;33994;50.998;5.864;2022-09-12T16:12:02;2.75;;;2.22;;
48203;SDS011;33994;50.998;5.864;2022-09-12T16:14:48;8.00;;;3.45;;
48203;SDS011;33994;50.998;5.864;2022-09-12T16:17:33;10.43;;;3.90;;
48203;SDS011;33994;50.998;5.864;2022-09-12T16:20:19;9.55;;;3.50;;
48203;SDS011;33994;50.998;5.864;2022-09-12T16:23:06;5.85;;;3.10;;
48203;SDS011;33994;50.998;5.864;2022-09-12T16:25:58;7.03;;;3.88;;
48203;SDS011;33994;50.998;5.864;2022-09-12T16:28:44;5.57;;;2.47;;
48203;SDS011;33994;50.998;5.864;2022-09-12T16:31:30;4.40;;;2.30;;
48203;SDS011;33994;50.998;5.864;2022-09-12T16:34:15;5.03;;;2.55;;
48203;SDS011;33994;50.998;5.864;2022-09-12T16:37:01;5.60;;;2.33;;
48203;SDS011;33994;50.998;5.864;2022-09-12T16:39:46;4.75;;;2.30;;
48203;SDS011;33994;50.998;5.864;2022-09-12T16:42:32;7.40;;;2.65;;
48203;SDS011;33994;50.998;5.864;2022-09-12T16:45:18;3.20;;;2.40;;
48203;SDS011;33994;50.998;5.864;2022-09-12T16:48:04;6.63;;;2.60;;
48203;SDS011;33994;50.998;5.864;2022-09-12T16:50:59;2.65;;;2.30;;
48203;SDS011;33994;50.998;5.864;2022-09-12T16:53:46;5.63;;;2.38;;
48203;SDS011;33994;50.998;5.864;2022-09-12T16:56:32;3.80;;;1.92;;
48203;SDS011;33994;50.998;5.864;2022-09-12T16:59:18;3.58;;;1.98;;
48203;SDS011;33994;50.998;5.864;2022-09-12T17:02:03;3.67;;;1.83;;
48203;SDS011;33994;50.998;5.864;2022-09-12T17:04:49;4.85;;;1.88;;
48203;SDS011;33994;50.998;5.864;2022-09-12T17:07:35;3.20;;;1.90;;
48203;SDS011;33994;50.998;5.864;2022-09-12T17:10:21;5.57;;;2.08;;
48203;SDS011;33994;50.998;5.864;2022-09-12T17:13:06;3.40;;;1.77;;
48203;SDS011;33994;50.998;5.864;2022-09-12T17:15:52;3.55;;;1.90;;
48203;SDS011;33994;50.998;5.864;2022-09-12T17:18:38;2.95;;;1.90;;
48203;SDS011;33994;50.998;5.864;2022-09-12T17:21:24;5.80;;;2.10;;
48203;SDS011;33994;50.998;5.864;2022-09-12T17:24:09;4.53;;;2.17;;
48203;SDS011;33994;50.998;5.864;2022-09-12T17:26:55;4.57;;;1.80;;
48203;SDS011;33994;50.998;5.864;2022-09-12T17:29:42;2.65;;;1.70;;
48203;SDS011;33994;50.998;5.864;2022-09-12T17:32:28;2.75;;;1.63;;
48203;SDS011;33994;50.998;5.864;2022-09-12T17:35:13;7.03;;;3.90;;
48203;SDS011;33994;50.998;5.864;2022-09-12T17:37:59;5.20;;;2.53;;
48203;SDS011;33994;50.998;5.864;2022-09-12T17:40:44;4.50;;;2.30;;
48203;SDS011;33994;50.998;5.864;2022-09-12T17:43:30;6.60;;;2.67;;
48203;SDS011;33994;50.998;5.864;2022-09-12T17:46:19;4.73;;;2.13;;
48203;SDS011;33994;50.998;5.864;2022-09-12T17:49:07;5.03;;;2.55;;
48203;SDS011;33994;50.998;5.864;2022-09-12T17:51:55;4.05;;;2.90;;
48203;SDS011;33994;50.998;5.864;2022-09-12T17:54:41;5.38;;;2.67;;
48203;SDS011;33994;50.998;5.864;2022-09-12T17:57:26;4.75;;;2.83;;
48203;SDS011;33994;50.998;5.864;2022-09-12T18:00:12;4.43;;;2.78;;
48203;SDS011;33994;50.998;5.864;2022-09-12T18:02:57;4.87;;;3.13;;
48203;SDS011;33994;50.998;5.864;2022-09-12T18:05:46;3.75;;;2.55;;
48203;SDS011;33994;50.998;5.864;2022-09-12T18:08:32;13.95;;;3.25;;
48203;SDS011;33994;50.998;5.864;2022-09-12T18:11:17;4.45;;;2.47;;
48203;SDS011;33994;50.998;5.864;2022-09-12T18:14:03;6.88;;;2.75;;
48203;SDS011;33994;50.998;5.864;2022-09-12T18:16:49;4.60;;;2.70;;
48203;SDS011;33994;50.998;5.864;2022-09-12T18:19:35;4.28;;;2.35;;
48203;SDS011;33994;50.998;5.864;2022-09-12T18:22:20;4.30;;;2.65;;
48203;SDS011;33994;50.998;5.864;2022-09-12T18:25:06;5.38;;;2.92;;
48203;SDS011;33994;50.998;5.864;2022-09-12T18:27:52;3.72;;;2.33;;
48203;SDS011;33994;50.998;5.864;2022-09-12T18:30:37;6.78;;;3.20;;
48203;SDS011;33994;50.998;5.864;2022-09-12T18:33:25;4.30;;;3.38;;
48203;SDS011;33994;50.998;5.864;2022-09-12T18:36:11;4.18;;;2.85;;
48203;SDS011;33994;50.998;5.864;2022-09-12T18:38:58;8.35;;;3.35;;
48203;SDS011;33994;50.998;5.864;2022-09-12T18:41:44;6.23;;;3.53;;
48203;SDS011;33994;50.998;5.864;2022-09-12T18:44:30;3.67;;;2.78;;
48203;SDS011;33994;50.998;5.864;2022-09-12T18:47:15;10.25;;;3.72;;
48203;SDS011;33994;50.998;5.864;2022-09-12T18:50:01;9.32;;;3.63;;
48203;SDS011;33994;50.998;5.864;2022-09-12T18:52:46;7.75;;;3.50;;
48203;SDS011;33994;50.998;5.864;2022-09-12T18:55:32;7.18;;;3.80;;
48203;SDS011;33994;50.998;5.864;2022-09-12T18:58:17;5.60;;;3.72;;
48203;SDS011;33994;50.998;5.864;2022-09-12T19:01:09;5.53;;;3.33;;
48203;SDS011;33994;50.998;5.864;2022-09-12T19:04:00;7.93;;;2.80;;
48203;SDS011;33994;50.998;5.864;2022-09-12T19:06:47;4.93;;;3.10;;
48203;SDS011;33994;50.998;5.864;2022-09-12T19:09:33;4.07;;;2.83;;
48203;SDS011;33994;50.998;5.864;2022-09-12T19:12:18;6.35;;;3.38;;
48203;SDS011;33994;50.998;5.864;2022-09-12T19:15:04;3.88;;;3.10;;
48203;SDS011;33994;50.998;5.864;2022-09-12T19:17:50;6.10;;;3.15;;
48203;SDS011;33994;50.998;5.864;2022-09-12T19:20:35;6.15;;;3.33;;
48203;SDS011;33994;50.998;5.864;2022-09-12T19:23:21;6.97;;;3.83;;
48203;SDS011;33994;50.998;5.864;2022-09-12T19:26:07;10.60;;;4.50;;
48203;SDS011;33994;50.998;5.864;2022-09-12T19:28:54;5.93;;;3.50;;
48203;SDS011;33994;50.998;5.864;2022-09-12T19:31:40;8.43;;;4.23;;
48203;SDS011;33994;50.998;5.864;2022-09-12T19:34:26;8.10;;;4.65;;
48203;SDS011;33994;50.998;5.864;2022-09-12T19:37:12;6.50;;;3.92;;
48203;SDS011;33994;50.998;5.864;2022-09-12T19:39:58;8.40;;;3.97;;
48203;SDS011;33994;50.998;5.864;2022-09-12T19:42:43;9.10;;;4.30;;
48203;SDS011;33994;50.998;5.864;2022-09-12T19:45:28;6.75;;;4.20;;
48203;SDS011;33994;50.998;5.864;2022-09-12T19:48:14;4.70;;;3.85;;